Time;durP1;ratioP1;P1;durP2;ratioP2;P2;SDS_P1;SDS_P2;PMS_P1;PMS_P2;Temp;Humidity;BMP_temperature;BMP_pressure;BME280_temperature;BME280_humidity;BME280_pressure;Samples;Min_cycle;Max_cycle;Signal;HPM_P1;HPM_P2
2021/08/18 00:02:41;;;;;;;30.53;22.63;;;;;15.40;101229.00;;;;12914308;22;20177;-79
2021/08/18 00:07:43;;;;;;;31.93;24.87;;;;;15.40;101222.00;;;;12914147;22;20169;-79
2021/08/18 00:12:44;;;;;;;32.20;25.53;;;;;15.40;101219.00;;;;12867543;22;20204;-78
2021/08/18 00:17:47;;;;;;;33.27;24.63;;;;;15.40;101229.00;;;;12865960;22;20521;-79
2021/08/18 00:22:50;;;;;;;29.87;24.33;;;;;15.40;101227.00;;;;12893077;22;20231;-83
2021/08/18 00:27:55;;;;;;;36.83;24.83;;;;;15.30;101221.00;;;;12914556;22;20749;-81
2021/08/18 00:32:56;;;;;;;32.83;25.70;;;;;15.30;101225.00;;;;12868413;22;20221;-81
2021/08/18 00:37:58;;;;;;;32.83;25.83;;;;;15.20;101228.00;;;;12866456;22;20174;-80
2021/08/18 00:42:59;;;;;;;33.20;24.70;;;;;15.20;101224.00;;;;12915046;22;20173;-79
2021/08/18 00:48:00;;;;;;;37.27;26.57;;;;;15.20;101212.00;;;;12864297;22;20208;-79
2021/08/18 00:53:04;;;;;;;34.93;24.10;;;;;15.20;101216.00;;;;12889648;22;20207;-78
2021/08/18 00:58:13;;;;;;;35.37;25.63;;;;;15.20;101227.00;;;;12868425;22;20260;-78
2021/08/18 01:03:14;;;;;;;36.53;24.70;;;;;15.20;101221.00;;;;12841149;22;20173;-78
2021/08/18 01:08:15;;;;;;;38.73;26.17;;;;;15.20;101220.00;;;;12888779;22;20181;-77
2021/08/18 01:13:19;;;;;;;39.60;26.63;;;;;15.20;101216.00;;;;12889400;22;20196;-78
2021/08/18 01:18:20;;;;;;;41.10;27.77;;;;;15.20;101221.00;;;;12863965;22;20683;-78
2021/08/18 01:23:21;;;;;;;41.47;26.47;;;;;15.20;101213.00;;;;12864221;22;20173;-79
2021/08/18 01:28:24;;;;;;;38.43;26.93;;;;;15.20;101217.00;;;;12889758;22;20176;-79
2021/08/18 01:33:25;;;;;;;38.23;28.17;;;;;15.20;101223.00;;;;12867229;22;20192;-80
2021/08/18 01:38:27;;;;;;;39.73;27.57;;;;;15.30;101220.00;;;;12864467;22;20177;-79
2021/08/18 01:43:28;;;;;;;46.27;27.97;;;;;15.30;101223.00;;;;12888949;22;20204;-80
2021/08/18 01:48:29;;;;;;;44.13;29.07;;;;;15.30;101226.00;;;;12889119;22;20161;-79
2021/08/18 01:53:41;;;;;;;41.43;27.77;;;;;15.30;101221.00;;;;12889708;22;20240;-80
2021/08/18 01:58:44;;;;;;;39.80;28.50;;;;;15.30;101215.00;;;;12866749;22;20643;-80
2021/08/18 02:03:45;;;;;;;45.30;28.47;;;;;15.30;101211.00;;;;12840521;22;20223;-79
2021/08/18 02:08:46;;;;;;;49.73;30.70;;;;;15.30;101214.00;;;;12865434;23;20406;-79
2021/08/18 02:13:47;;;;;;;42.80;30.00;;;;;15.30;101215.00;;;;12867672;22;20202;-80
2021/08/18 02:18:48;;;;;;;50.20;32.67;;;;;15.30;101211.00;;;;12891188;22;20193;-80
2021/08/18 02:23:49;;;;;;;47.63;31.23;;;;;15.30;101215.00;;;;12866345;22;20683;-79
2021/08/18 02:28:51;;;;;;;46.27;31.27;;;;;15.30;101211.00;;;;12891878;22;20528;-80
2021/08/18 02:33:52;;;;;;;46.20;31.57;;;;;15.30;101214.00;;;;12892144;22;20198;-80
2021/08/18 02:38:53;;;;;;;51.60;33.63;;;;;15.30;101218.00;;;;12843149;22;20181;-79
2021/08/18 02:43:54;;;;;;;50.87;31.70;;;;;15.30;101221.00;;;;12867188;22;20220;-80
2021/08/18 02:48:55;;;;;;;54.53;33.67;;;;;15.30;101219.00;;;;12867159;22;20465;-79
2021/08/18 02:53:56;;;;;;;48.57;31.47;;;;;15.30;101211.00;;;;12867325;22;20194;-79
2021/08/18 02:58:57;;;;;;;52.60;31.50;;;;;15.30;101208.00;;;;12865840;22;20181;-79
2021/08/18 03:03:59;;;;;;;49.23;30.77;;;;;15.30;101213.00;;;;12864449;22;20184;-79
2021/08/18 03:09:00;;;;;;;43.47;29.23;;;;;15.30;101215.00;;;;12890342;22;20228;-78
2021/08/18 03:14:02;;;;;;;48.43;30.67;;;;;15.30;101215.00;;;;12865481;22;20195;-78
2021/08/18 03:19:03;;;;;;;50.60;30.73;;;;;15.30;101217.00;;;;12865071;22;20193;-78
2021/08/18 03:24:05;;;;;;;56.20;34.07;;;;;15.30;101220.00;;;;12840628;22;20182;-78
2021/08/18 03:29:06;;;;;;;59.27;34.20;;;;;15.30;101224.00;;;;12864122;22;20173;-79
2021/08/18 03:34:08;;;;;;;58.57;33.10;;;;;15.30;101213.00;;;;12865564;22;20524;-78
2021/08/18 03:39:09;;;;;;;56.27;33.50;;;;;15.30;101213.00;;;;12888832;22;20166;-78
2021/08/18 03:44:10;;;;;;;64.40;33.90;;;;;15.30;101208.00;;;;12888715;22;20174;-78
2021/08/18 03:49:11;;;;;;;60.27;32.13;;;;;15.30;101211.00;;;;12864840;22;20177;-78
2021/08/18 03:54:12;;;;;;;62.40;32.57;;;;;15.30;101212.00;;;;12863566;22;20886;-79
2021/08/18 03:59:14;;;;;;;52.77;32.30;;;;;15.30;101210.00;;;;12863893;22;20482;-79
2021/08/18 04:04:15;;;;;;;54.63;33.13;;;;;15.30;101213.00;;;;12864931;22;20174;-78
2021/08/18 04:09:16;;;;;;;58.43;32.97;;;;;15.30;101212.00;;;;12934864;22;20165;-78
2021/08/18 04:14:17;;;;;;;59.87;33.57;;;;;15.30;101207.00;;;;12863920;22;20228;-79
2021/08/18 04:19:18;;;;;;;59.73;33.97;;;;;15.30;101209.00;;;;12863640;22;20245;-79
2021/08/18 04:24:19;;;;;;;57.73;33.50;;;;;15.30;101210.00;;;;12865017;23;20170;-78
2021/08/18 04:29:20;;;;;;;62.33;33.37;;;;;15.30;101205.00;;;;12864731;22;20192;-79
2021/08/18 04:34:22;;;;;;;64.70;33.67;;;;;15.30;101200.00;;;;12863675;22;20193;-78
2021/08/18 04:39:23;;;;;;;66.30;32.40;;;;;15.30;101202.00;;;;12840510;22;20505;-79
2021/08/18 04:44:24;;;;;;;63.67;32.50;;;;;15.30;101203.00;;;;12864159;22;20583;-78
2021/08/18 04:49:25;;;;;;;61.57;34.23;;;;;15.30;101193.00;;;;12888068;22;20601;-78
2021/08/18 04:54:26;;;;;;;62.10;33.90;;;;;15.30;101194.00;;;;12888171;22;20189;-78
2021/08/18 04:59:27;;;;;;;65.43;34.50;;;;;15.30;101196.00;;;;12864539;22;20170;-78
2021/08/18 05:04:28;;;;;;;57.97;31.97;;;;;15.40;101202.00;;;;12839805;22;20204;-77
2021/08/18 05:09:30;;;;;;;62.67;33.77;;;;;15.40;101207.00;;;;12889019;22;20537;-78
2021/08/18 05:14:31;;;;;;;57.87;33.53;;;;;15.50;101204.00;;;;12863949;22;20512;-77
2021/08/18 05:19:32;;;;;;;66.30;33.33;;;;;15.50;101208.00;;;;12913684;22;20252;-78
2021/08/18 05:24:33;;;;;;;62.33;32.03;;;;;15.50;101198.00;;;;12839230;22;20169;-77
2021/08/18 05:29:34;;;;;;;64.10;32.53;;;;;15.60;101190.00;;;;12888085;22;20173;-77
2021/08/18 05:34:35;;;;;;;59.37;32.67;;;;;15.70;101187.00;;;;12863677;22;20193;-78
2021/08/18 05:39:37;;;;;;;63.00;31.83;;;;;15.80;101199.00;;;;12863410;22;20501;-77
2021/08/18 05:44:38;;;;;;;56.57;30.33;;;;;15.80;101192.00;;;;12862934;22;20177;-77
2021/08/18 05:49:39;;;;;;;56.33;29.77;;;;;15.90;101194.00;;;;12838773;22;20205;-78
2021/08/18 05:54:41;;;;;;;57.30;29.10;;;;;16.00;101189.00;;;;12934386;22;20197;-77
2021/08/18 05:59:42;;;;;;;54.73;29.23;;;;;16.10;101198.00;;;;12887625;22;20228;-78
2021/08/18 06:04:43;;;;;;;56.20;30.23;;;;;16.20;101202.00;;;;12862741;22;20166;-78
2021/08/18 06:09:44;;;;;;;54.58;31.73;;;;;16.30;101201.00;;;;12863258;22;20173;-77
2021/08/18 06:14:45;;;;;;;50.27;29.90;;;;;16.40;101201.00;;;;12838438;22;20665;-78
2021/08/18 06:19:47;;;;;;;52.30;30.35;;;;;16.50;101204.00;;;;12886292;22;20424;-78
2021/08/18 06:24:50;;;;;;;52.70;31.40;;;;;16.70;101195.00;;;;12861411;22;20177;-77
2021/08/18 06:29:51;;;;;;;44.97;27.63;;;;;16.80;101194.00;;;;12908937;22;20162;-77
2021/08/18 06:34:53;;;;;;;45.38;28.95;;;;;16.90;101195.00;;;;12933139;22;20252;-77
2021/08/18 06:40:11;;;;;;;45.90;28.52;;;;;17.00;101194.00;;;;12867851;22;20173;-77
2021/08/18 06:45:13;;;;;;;48.47;29.35;;;;;17.10;101196.00;;;;12865973;22;20170;-77
2021/08/18 06:50:15;;;;;;;39.70;26.48;;;;;17.20;101195.00;;;;12867203;22;20170;-78
2021/08/18 06:55:16;;;;;;;43.47;27.48;;;;;17.30;101199.00;;;;12867048;22;20632;-77
2021/08/18 07:00:17;;;;;;;43.38;27.95;;;;;17.50;101202.00;;;;12865584;22;20605;-77
2021/08/18 07:05:19;;;;;;;42.83;27.15;;;;;17.70;101203.00;;;;12890062;22;20172;-77
2021/08/18 07:10:21;;;;;;;36.88;26.00;;;;;17.80;101210.00;;;;12864574;22;20475;-78
2021/08/18 07:15:22;;;;;;;36.60;24.85;;;;;18.00;101210.00;;;;12864987;22;20200;-77
2021/08/18 07:20:23;;;;;;;30.85;21.40;;;;;18.10;101215.00;;;;12866218;22;20224;-77
2021/08/18 07:25:24;;;;;;;27.50;19.95;;;;;18.00;101226.00;;;;12914897;22;20224;-77
2021/08/18 07:30:26;;;;;;;25.88;20.65;;;;;17.90;101225.00;;;;12889919;23;20169;-77
2021/08/18 07:35:27;;;;;;;25.77;17.40;;;;;18.00;101238.00;;;;12890384;22;20741;-77
2021/08/18 07:40:28;;;;;;;27.23;18.88;;;;;18.20;101241.00;;;;12866233;22;20173;-78
2021/08/18 07:45:30;;;;;;;24.25;16.92;;;;;18.30;101232.00;;;;12890892;22;20176;-77
2021/08/18 07:50:31;;;;;;;24.92;18.05;;;;;18.40;101229.00;;;;12889914;22;20177;-77
2021/08/18 07:55:32;;;;;;;21.80;16.65;;;;;18.50;101230.00;;;;12936945;22;20638;-77
2021/08/18 08:00:38;;;;;;;18.88;16.27;;;;;18.60;101225.00;;;;12890593;22;20676;-77
2021/08/18 08:05:39;;;;;;;18.63;15.05;;;;;18.60;101234.00;;;;12936713;22;20169;-77
2021/08/18 08:10:40;;;;;;;20.42;15.55;;;;;19.00;101239.00;;;;12840966;22;20181;-77
2021/08/18 08:15:42;;;;;;;16.63;14.77;;;;;19.40;101236.00;;;;12866332;22;20204;-77
2021/08/18 08:20:43;;;;;;;19.13;14.88;;;;;19.70;101240.00;;;;12867270;22;20243;-78
2021/08/18 08:25:44;;;;;;;17.70;15.13;;;;;19.90;101245.00;;;;12936857;22;20188;-78
2021/08/18 08:30:48;;;;;;;20.80;17.25;;;;;20.10;101239.00;;;;12867148;22;20605;-78
2021/08/18 08:35:50;;;;;;;18.10;16.05;;;;;20.10;101245.00;;;;12892455;22;20194;-78
2021/08/18 08:40:51;;;;;;;18.60;15.63;;;;;20.00;101252.00;;;;12891525;22;20215;-78
2021/08/18 08:45:52;;;;;;;20.45;16.70;;;;;19.90;101247.00;;;;12892718;22;20225;-79
2021/08/18 08:50:53;;;;;;;24.05;19.00;;;;;19.80;101242.00;;;;12867580;22;20174;-79
2021/08/18 08:55:54;;;;;;;22.30;18.60;;;;;19.90;101242.00;;;;12891663;22;20701;-79
2021/08/18 09:00:56;;;;;;;26.95;18.75;;;;;20.40;101233.00;;;;12937331;22;20165;-79
2021/08/18 09:06:04;;;;;;;20.65;18.45;;;;;20.20;101237.00;;;;12938479;22;20180;-79
2021/08/18 09:11:07;;;;;;;19.65;17.10;;;;;20.00;101230.00;;;;12841249;22;20205;-80
2021/08/18 09:16:09;;;;;;;19.10;15.23;;;;;19.90;101235.00;;;;12866753;22;20275;-79
2021/08/18 09:21:36;;;;;;;17.50;15.65;;;;;19.90;101223.00;;;;12891867;22;20188;-80
2021/08/18 09:26:46;;;;;;;18.10;14.57;;;;;20.20;101227.00;;;;12938405;22;20490;-79
2021/08/18 09:31:48;;;;;;;15.18;13.40;;;;;20.50;101227.00;;;;12893761;22;20420;-80
2021/08/18 09:36:49;;;;;;;14.93;12.02;;;;;21.10;101225.00;;;;12868280;23;20196;-80
2021/08/18 09:41:52;;;;;;;12.82;11.63;;;;;21.50;101225.00;;;;12844392;22;20177;-80
2021/08/18 09:47:19;;;;;;;12.25;11.05;;;;;22.00;101232.00;;;;12867882;22;20169;-80
2021/08/18 09:52:20;;;;;;;12.95;11.68;;;;;22.30;101226.00;;;;12864404;23;20177;-80
2021/08/18 09:57:31;;;;;;;12.90;10.98;;;;;22.90;101220.00;;;;12938343;22;20188;-80
2021/08/18 10:02:33;;;;;;;16.45;10.13;;;;;23.80;101208.00;;;;12890149;22;20173;-79
2021/08/18 10:07:34;;;;;;;11.20;9.88;;;;;24.20;101204.00;;;;12916361;22;20169;-79
2021/08/18 10:12:36;;;;;;;11.70;10.55;;;;;24.00;101202.00;;;;12866790;22;20176;-79
2021/08/18 10:17:41;;;;;;;9.80;8.85;;;;;23.80;101190.00;;;;12941197;22;20201;-78
2021/08/18 10:22:42;;;;;;;9.38;8.48;;;;;24.10;101189.00;;;;12868867;22;20600;-79
2021/08/18 10:27:48;;;;;;;7.97;7.18;;;;;23.60;101184.00;;;;12893803;22;20710;-78
2021/08/18 10:32:49;;;;;;;11.75;7.13;;;;;23.80;101181.00;;;;12891831;22;20177;-78
2021/08/18 10:38:23;;;;;;;6.88;6.13;;;;;24.10;101179.00;;;;12940482;22;20169;-78
2021/08/18 10:43:56;;;;;;;6.15;5.55;;;;;23.90;101181.00;;;;12892244;22;20580;-78
2021/08/18 10:49:01;;;;;;;10.32;6.93;;;;;23.70;101182.00;;;;12880648;22;20173;-78
2021/08/18 10:54:27;;;;;;;7.78;6.95;;;;;23.70;101189.00;;;;12892981;22;20190;-78
2021/08/18 10:59:35;;;;;;;8.65;7.65;;;;;23.60;101179.00;;;;12892605;22;20260;-78
2021/08/18 11:04:49;;;;;;;9.70;8.40;;;;;23.80;101172.00;;;;12868773;22;20180;-77
2021/08/18 11:09:50;;;;;;;9.77;8.88;;;;;23.70;101167.00;;;;12938755;22;20173;-78
2021/08/18 11:14:51;;;;;;;10.82;8.80;;;;;23.50;101171.00;;;;12868407;22;20211;-78
2021/08/18 11:19:53;;;;;;;10.75;7.45;;;;;23.20;101174.00;;;;12917169;22;20196;-78
2021/08/18 11:25:03;;;;;;;12.75;7.38;;;;;22.80;101176.00;;;;12891932;22;20616;-78
2021/08/18 11:30:06;;;;;;;9.55;7.45;;;;;23.20;101163.00;;;;12938756;22;20165;-78
2021/08/18 11:35:07;;;;;;;9.20;8.38;;;;;23.80;101162.00;;;;12937543;22;20185;-78
2021/08/18 11:40:17;;;;;;;7.93;6.75;;;;;24.30;101168.00;;;;12892069;22;20911;-78
2021/08/18 11:45:19;;;;;;;7.90;7.20;;;;;24.40;101162.00;;;;12917948;22;20197;-78
2021/08/18 11:50:22;;;;;;;7.85;6.78;;;;;24.40;101157.00;;;;12888481;22;20157;-78
2021/08/18 11:55:26;;;;;;;7.68;6.00;;;;;24.40;101164.00;;;;12937309;22;20194;-78
2021/08/18 12:00:28;;;;;;;7.25;6.55;;;;;23.90;101161.00;;;;12893797;22;20481;-79
2021/08/18 12:05:36;;;;;;;6.88;6.30;;;;;23.30;101155.00;;;;12891065;22;20174;-78
2021/08/18 12:10:39;;;;;;;8.57;5.90;;;;;22.90;101157.00;;;;12890769;22;20197;-78
2021/08/18 12:15:46;;;;;;;8.35;7.40;;;;;23.20;101163.00;;;;12911217;22;20224;-78
2021/08/18 12:20:47;;;;;;;7.32;6.72;;;;;23.60;101157.00;;;;12889555;22;20170;-78
2021/08/18 12:25:48;;;;;;;7.35;6.65;;;;;23.90;101154.00;;;;12890670;22;20240;-78
2021/08/18 12:31:01;;;;;;;5.78;5.28;;;;;24.10;101143.00;;;;12890299;22;20177;-78
2021/08/18 12:36:13;;;;;;;6.50;5.90;;;;;23.70;101152.00;;;;12889179;22;20512;-78
2021/08/18 12:41:15;;;;;;;6.95;6.25;;;;;23.60;101149.00;;;;12911957;22;20185;-78
2021/08/18 12:46:23;;;;;;;7.30;6.07;;;;;23.80;101149.00;;;;12889324;22;20173;-78
2021/08/18 12:51:24;;;;;;;6.03;5.15;;;;;24.00;101158.00;;;;12936398;22;20165;-78
2021/08/18 12:56:25;;;;;;;7.75;5.53;;;;;23.60;101155.00;;;;12915280;22;20498;-78
2021/08/18 13:01:27;;;;;;;8.50;5.18;;;;;23.00;101155.00;;;;12841709;22;20197;-78
2021/08/18 13:06:28;;;;;;;6.15;5.20;;;;;22.00;101157.00;;;;12865790;22;20201;-78
2021/08/18 13:11:31;;;;;;;6.07;5.47;;;;;21.60;101161.00;;;;12889904;22;20825;-77
2021/08/18 13:16:32;;;;;;;6.50;5.63;;;;;21.50;101160.00;;;;12864491;22;20201;-78
2021/08/18 13:21:33;;;;;;;7.43;5.03;;;;;21.10;101164.00;;;;12863932;22;20184;-77
2021/08/18 13:26:34;;;;;;;6.70;5.15;;;;;21.00;101177.00;;;;12864248;23;20185;-77
2021/08/18 13:31:36;;;;;;;6.93;5.38;;;;;20.70;101172.00;;;;12862984;22;20170;-77
2021/08/18 13:36:38;;;;;;;6.82;6.07;;;;;20.60;101162.00;;;;12934626;22;20196;-77
2021/08/18 13:41:40;;;;;;;7.13;6.53;;;;;21.50;101161.00;;;;12889138;22;20179;-78
2021/08/18 13:46:43;;;;;;;5.18;4.68;;;;;22.80;101159.00;;;;12889303;22;20205;-78
2021/08/18 13:51:44;;;;;;;6.18;4.55;;;;;23.20;101150.00;;;;12938289;22;20166;-78
2021/08/18 13:56:46;;;;;;;5.68;4.22;;;;;22.80;101152.00;;;;12962428;22;20189;-78
2021/08/18 14:01:47;;;;;;;4.53;4.13;;;;;22.30;101144.00;;;;12866377;22;20173;-78
2021/08/18 14:06:49;;;;;;;4.22;3.88;;;;;21.60;101136.00;;;;12937564;22;20176;-77
2021/08/18 14:11:50;;;;;;;6.57;3.92;;;;;21.10;101128.00;;;;12891106;22;20176;-78
2021/08/18 14:17:02;;;;;;;8.35;4.13;;;;;20.90;101137.00;;;;12868869;22;20205;-77
2021/08/18 14:22:03;;;;;;;5.38;4.60;;;;;21.00;101134.00;;;;12938618;22;20168;-77
2021/08/18 14:27:04;;;;;;;6.10;4.53;;;;;20.90;101127.00;;;;12867252;22;20228;-77
2021/08/18 14:32:06;;;;;;;5.70;4.38;;;;;21.10;101120.00;;;;12862041;22;20223;-78
2021/08/18 14:37:07;;;;;;;4.75;4.22;;;;;21.50;101126.00;;;;12891824;22;20193;-79
2021/08/18 14:42:08;;;;;;;6.95;4.90;;;;;21.40;101114.00;;;;12913422;22;20193;-79
2021/08/18 14:47:10;;;;;;;5.22;4.35;;;;;20.90;101115.00;;;;12892854;22;20911;-78
2021/08/18 14:52:11;;;;;;;8.93;5.78;;;;;20.20;101112.00;;;;12890680;22;20935;-79
2021/08/18 14:57:13;;;;;;;5.43;4.93;;;;;19.70;101108.00;;;;12867570;22;20545;-79
2021/08/18 15:02:14;;;;;;;7.88;4.30;;;;;19.40;101112.00;;;;12868355;22;20605;-79
2021/08/18 15:07:15;;;;;;;5.78;4.68;;;;;19.40;101102.00;;;;12892488;22;20261;-79
2021/08/18 15:12:17;;;;;;;5.50;4.70;;;;;20.40;101101.00;;;;12939101;22;20462;-79
2021/08/18 15:17:19;;;;;;;5.68;4.18;;;;;21.30;101095.00;;;;12891720;22;20208;-78
2021/08/18 15:22:22;;;;;;;6.07;4.65;;;;;21.40;101101.00;;;;12844547;22;20169;-78
2021/08/18 15:27:24;;;;;;;5.00;4.30;;;;;21.40;101088.00;;;;12868483;22;20182;-79
2021/08/18 15:32:25;;;;;;;4.50;3.95;;;;;20.90;101090.00;;;;12939443;22;20240;-78
2021/08/18 15:37:28;;;;;;;8.48;4.13;;;;;20.20;101090.00;;;;12868328;22;20228;-78
2021/08/18 15:42:29;;;;;;;5.55;3.90;;;;;20.00;101082.00;;;;12841936;22;20177;-79
2021/08/18 15:47:30;;;;;;;4.97;3.88;;;;;19.90;101085.00;;;;12891026;22;20178;-78
2021/08/18 15:52:32;;;;;;;5.32;4.28;;;;;19.90;101087.00;;;;12892447;22;20169;-78
2021/08/18 15:57:36;;;;;;;7.30;3.92;;;;;20.20;101076.00;;;;12892189;22;20676;-78
2021/08/18 16:02:40;;;;;;;7.90;5.25;;;;;20.80;101073.00;;;;12892290;22;20177;-78
2021/08/18 16:07:42;;;;;;;6.28;5.00;;;;;21.40;101060.00;;;;12892190;22;20165;-78
2021/08/18 16:12:43;;;;;;;6.88;4.70;;;;;21.70;101056.00;;;;12892974;22;20169;-78
2021/08/18 16:17:44;;;;;;;5.63;4.60;;;;;21.90;101057.00;;;;12892121;22;20690;-78
2021/08/18 16:22:45;;;;;;;5.22;4.10;;;;;21.90;101052.00;;;;12843391;22;20173;-78
2021/08/18 16:27:47;;;;;;;5.68;4.90;;;;;21.70;101042.00;;;;12917176;22;20624;-78
2021/08/18 16:32:48;;;;;;;6.25;4.07;;;;;21.20;101044.00;;;;12867320;22;20180;-78
2021/08/18 16:37:50;;;;;;;7.28;4.40;;;;;20.90;101040.00;;;;12914076;22;20193;-78
2021/08/18 16:42:52;;;;;;;4.57;4.05;;;;;20.60;101032.00;;;;12866715;22;20474;-78
2021/08/18 16:47:54;;;;;;;4.28;3.80;;;;;20.40;101033.00;;;;12912426;22;20605;-77
2021/08/18 16:52:55;;;;;;;5.10;4.60;;;;;20.30;101025.00;;;;12889844;22;20169;-78
2021/08/18 16:57:57;;;;;;;4.93;4.47;;;;;20.40;101026.00;;;;12890210;22;20200;-78
2021/08/18 17:02:58;;;;;;;5.05;4.20;;;;;20.30;101022.00;;;;12914716;22;20169;-78
2021/08/18 17:08:01;;;;;;;5.93;4.57;;;;;20.20;101014.00;;;;12864997;22;20640;-78
2021/08/18 17:13:02;;;;;;;5.95;3.55;;;;;20.00;101003.00;;;;12914638;22;20173;-78
2021/08/18 17:18:05;;;;;;;6.70;4.00;;;;;19.80;101003.00;;;;12840482;22;20281;-78
2021/08/18 17:23:07;;;;;;;7.00;4.05;;;;;19.50;101001.00;;;;12888802;22;20166;-78
2021/08/18 17:28:08;;;;;;;8.43;4.30;;;;;19.30;100995.00;;;;12889122;22;20173;-77
2021/08/18 17:33:09;;;;;;;8.00;4.85;;;;;19.20;100996.00;;;;12864123;22;20208;-78
2021/08/18 17:38:10;;;;;;;7.97;5.00;;;;;19.10;100989.00;;;;12889888;22;20169;-78
2021/08/18 17:43:11;;;;;;;9.25;4.55;;;;;19.00;100995.00;;;;12889091;22;20193;-77
2021/08/18 17:48:15;;;;;;;7.32;5.72;;;;;19.00;100990.00;;;;12886128;22;20165;-78
2021/08/18 17:53:16;;;;;;;7.13;5.97;;;;;19.00;100981.00;;;;12889132;22;20177;-77
2021/08/18 17:58:18;;;;;;;8.00;4.75;;;;;19.00;100986.00;;;;12863992;22;20169;-77
2021/08/18 18:03:20;;;;;;;7.45;5.05;;;;;19.00;100986.00;;;;12914168;22;20170;-77
2021/08/18 18:08:22;;;;;;;11.32;6.22;;;;;18.90;100977.00;;;;12909722;22;20166;-77
2021/08/18 18:13:23;;;;;;;9.05;6.13;;;;;18.90;100988.00;;;;12913682;22;20170;-77
2021/08/18 18:18:24;;;;;;;9.40;5.47;;;;;18.90;100983.00;;;;12934313;22;20771;-78
2021/08/18 18:23:25;;;;;;;8.45;6.18;;;;;18.80;100975.00;;;;12887957;22;20323;-77
2021/08/18 18:28:27;;;;;;;10.63;5.95;;;;;18.70;100972.00;;;;12934033;22;20162;-77
2021/08/18 18:33:29;;;;;;;10.38;6.18;;;;;18.70;100970.00;;;;12912566;22;20687;-77
2021/08/18 18:38:30;;;;;;;10.90;6.68;;;;;18.60;100972.00;;;;12936835;22;20169;-77
2021/08/18 18:43:32;;;;;;;8.75;6.38;;;;;18.60;100978.00;;;;12890310;22;20182;-78
2021/08/18 18:48:33;;;;;;;8.27;6.00;;;;;18.60;100971.00;;;;12890911;22;20730;-77
2021/08/18 18:53:34;;;;;;;7.35;5.78;;;;;18.50;100963.00;;;;12865781;22;20960;-77
2021/08/18 18:58:36;;;;;;;6.43;5.13;;;;;18.50;100980.00;;;;12890849;22;20505;-78
2021/08/18 19:03:37;;;;;;;6.90;5.68;;;;;18.50;100973.00;;;;12889599;22;20170;-77
2021/08/18 19:08:42;;;;;;;8.32;5.05;;;;;18.50;100978.00;;;;12890703;22;20165;-77
2021/08/18 19:13:43;;;;;;;8.13;5.07;;;;;18.40;100973.00;;;;12890286;22;20198;-78
2021/08/18 19:18:44;;;;;;;8.68;4.75;;;;;18.40;100974.00;;;;12910837;22;20217;-77
2021/08/18 19:23:46;;;;;;;6.45;4.60;;;;;18.40;100980.00;;;;12936588;22;20178;-78
2021/08/18 19:28:47;;;;;;;8.23;4.70;;;;;18.40;100978.00;;;;12936887;22;20165;-78
2021/08/18 19:33:48;;;;;;;7.75;4.78;;;;;18.40;100982.00;;;;12890454;22;20719;-77
2021/08/18 19:38:49;;;;;;;7.53;5.05;;;;;18.40;100998.00;;;;12910319;22;20853;-77
2021/08/18 19:43:50;;;;;;;7.28;4.32;;;;;18.30;100990.00;;;;12864725;22;20173;-77
2021/08/18 19:48:51;;;;;;;6.70;4.95;;;;;18.30;100985.00;;;;12914879;22;20173;-77
2021/08/18 19:53:53;;;;;;;8.27;4.72;;;;;18.30;100993.00;;;;12889862;22;20212;-77
2021/08/18 19:58:54;;;;;;;8.27;5.10;;;;;18.30;100993.00;;;;12864488;22;20177;-77
2021/08/18 20:03:55;;;;;;;8.13;4.60;;;;;18.30;100989.00;;;;12889544;22;20180;-77
2021/08/18 20:08:56;;;;;;;6.32;4.93;;;;;18.30;100986.00;;;;12840513;22;20174;-78
2021/08/18 20:13:58;;;;;;;6.45;4.90;;;;;18.20;100987.00;;;;12889209;22;20224;-77
2021/08/18 20:19:00;;;;;;;10.35;4.90;;;;;18.20;100988.00;;;;12912071;22;20197;-76
2021/08/18 20:24:01;;;;;;;7.43;4.70;;;;;18.20;100992.00;;;;12927906;22;20173;-77
2021/08/18 20:29:03;;;;;;;10.32;5.50;;;;;18.20;100992.00;;;;12856159;22;20605;-77
2021/08/18 20:34:04;;;;;;;6.68;4.63;;;;;18.10;100995.00;;;;12929671;22;20740;-77
2021/08/18 20:39:07;;;;;;;9.90;5.28;;;;;18.10;100985.00;;;;12882036;22;20260;-76
2021/08/18 20:44:10;;;;;;;7.80;4.82;;;;;18.10;100985.00;;;;12882149;22;20509;-76
2021/08/18 20:49:14;;;;;;;8.23;5.28;;;;;18.10;100991.00;;;;12928318;22;20165;-76
2021/08/18 20:54:15;;;;;;;7.32;5.07;;;;;18.10;100988.00;;;;12856650;22;20200;-76
2021/08/18 20:59:16;;;;;;;9.00;5.65;;;;;18.00;100996.00;;;;12881672;22;20648;-77
2021/08/18 21:04:17;;;;;;;9.63;5.22;;;;;18.00;100991.00;;;;12857205;22;20184;-76
2021/08/18 21:09:19;;;;;;;8.25;5.63;;;;;18.00;100995.00;;;;12857020;22;20530;-76
2021/08/18 21:14:20;;;;;;;8.05;5.65;;;;;18.00;101002.00;;;;12927836;22;20676;-76
2021/08/18 21:19:21;;;;;;;10.88;5.85;;;;;17.90;101002.00;;;;12857801;22;20193;-77
2021/08/18 21:24:42;;;;;;;9.75;5.40;;;;;17.90;100996.00;;;;12927747;22;20204;-76
2021/08/18 21:29:44;;;;;;;10.00;6.47;;;;;17.90;100992.00;;;;12882606;22;20479;-76
2021/08/18 21:34:45;;;;;;;9.10;5.72;;;;;17.90;100993.00;;;;12927023;22;20193;-77
2021/08/18 21:39:46;;;;;;;9.77;5.30;;;;;17.90;100995.00;;;;12881470;22;20174;-76
2021/08/18 21:44:47;;;;;;;10.13;5.97;;;;;17.90;100993.00;;;;12905553;22;20180;-77
2021/08/18 21:49:49;;;;;;;8.60;5.45;;;;;17.90;101001.00;;;;12926417;22;20532;-77
2021/08/18 21:54:50;;;;;;;10.23;5.78;;;;;17.90;100998.00;;;;12927792;22;20181;-77
2021/08/18 21:59:52;;;;;;;11.00;6.00;;;;;17.90;101003.00;;;;12880137;22;20621;-77
2021/08/18 22:04:53;;;;;;;9.38;5.55;;;;;17.80;100986.00;;;;12905767;22;20216;-76
2021/08/18 22:09:54;;;;;;;9.50;5.75;;;;;17.80;101002.00;;;;12857085;22;20197;-77
2021/08/18 22:14:56;;;;;;;10.65;5.43;;;;;17.80;101004.00;;;;12930536;22;20186;-77
2021/08/18 22:19:57;;;;;;;10.68;5.85;;;;;17.80;101003.00;;;;12930745;22;20196;-76
2021/08/18 22:24:58;;;;;;;8.88;5.28;;;;;17.80;100992.00;;;;12862962;22;20173;-76
2021/08/18 22:30:00;;;;;;;9.30;4.70;;;;;17.70;100990.00;;;;12888591;22;20658;-77
2021/08/18 22:35:01;;;;;;;8.63;4.85;;;;;17.70;100994.00;;;;12915334;22;20201;-77
2021/08/18 22:40:03;;;;;;;7.28;4.88;;;;;17.70;100995.00;;;;12889390;22;20169;-77
2021/08/18 22:45:05;;;;;;;9.05;4.93;;;;;17.70;101006.00;;;;12889310;22;20173;-76
2021/08/18 22:50:08;;;;;;;6.18;4.30;;;;;17.70;100995.00;;;;12865060;22;20228;-77
2021/08/18 22:55:10;;;;;;;8.43;5.22;;;;;17.70;100997.00;;;;12889361;22;20201;-77
2021/08/18 23:00:12;;;;;;;9.30;5.05;;;;;17.70;100999.00;;;;12915201;22;20165;-77
2021/08/18 23:05:13;;;;;;;9.07;5.07;;;;;17.70;100993.00;;;;12914649;22;20249;-77
2021/08/18 23:10:15;;;;;;;7.72;5.07;;;;;17.60;100995.00;;;;12864069;22;20549;-77
2021/08/18 23:15:16;;;;;;;7.40;5.28;;;;;17.60;101001.00;;;;12935848;22;20185;-77
2021/08/18 23:20:18;;;;;;;9.35;5.10;;;;;17.60;100995.00;;;;12909043;22;20162;-77
2021/08/18 23:25:19;;;;;;;7.57;4.43;;;;;17.60;101003.00;;;;12935125;22;20170;-76
2021/08/18 23:30:20;;;;;;;9.20;3.63;;;;;17.60;101005.00;;;;12889294;22;20173;-76
2021/08/18 23:35:21;;;;;;;6.35;3.60;;;;;17.50;100992.00;;;;12888504;22;20512;-77
2021/08/18 23:40:23;;;;;;;4.43;2.78;;;;;17.50;100996.00;;;;12890473;22;20180;-77
2021/08/18 23:45:24;;;;;;;5.38;3.15;;;;;17.50;100985.00;;;;12910760;22;20173;-77
2021/08/18 23:50:25;;;;;;;4.95;2.97;;;;;17.50;100997.00;;;;12914919;22;20474;-77
2021/08/18 23:55:26;;;;;;;4.50;2.33;;;;;17.40;100991.00;;;;12914621;22;20475;-77
